createdAt,value
2018-04-12T00:01:15.766Z,86.00
2018-04-12T00:03:44.352Z,94.87
2018-04-12T00:06:13.715Z,79.17
2018-04-12T00:08:45.057Z,81.47
2018-04-12T00:11:14.387Z,92.90
2018-04-12T00:13:47.195Z,86.17
2018-04-12T00:16:16.600Z,86.07
2018-04-12T00:18:49.790Z,82.27
2018-04-12T00:21:18.346Z,93.30
2018-04-12T00:23:51.788Z,81.47
2018-04-12T00:26:21.826Z,86.50
2018-04-12T00:28:55.248Z,89.00
2018-04-12T00:31:24.681Z,99.67
2018-04-12T00:33:57.373Z,84.97
2018-04-12T00:36:26.360Z,86.10
2018-04-12T00:38:59.397Z,83.83
2018-04-12T00:41:28.707Z,83.37
2018-04-12T00:44:02.642Z,74.97
2018-04-12T00:46:31.201Z,72.83
2018-04-12T00:49:05.872Z,66.70
2018-04-12T00:51:35.396Z,71.63
2018-04-12T00:54:09.536Z,76.07
2018-04-12T00:56:38.426Z,82.53
2018-04-12T00:59:11.144Z,88.20
2018-04-12T01:01:41.465Z,90.47
2018-04-12T01:04:13.868Z,74.93
2018-04-12T01:06:42.806Z,58.63
2018-04-12T01:09:16.826Z,72.43
2018-04-12T01:11:46.699Z,67.63
2018-04-12T01:14:17.509Z,70.07
2018-04-12T01:16:47.121Z,67.97
2018-04-12T01:19:20.481Z,70.23
2018-04-12T01:21:49.431Z,69.57
2018-04-12T01:24:21.809Z,77.63
2018-04-12T01:26:52.106Z,83.03
2018-04-12T01:29:24.980Z,118.30
2018-04-12T01:31:53.553Z,146.07
2018-04-12T01:34:27.190Z,246.43
2018-04-12T01:36:56.437Z,322.50
2018-04-12T01:39:30.388Z,118.53
2018-04-12T01:41:58.929Z,115.40
2018-04-12T01:44:32.659Z,101.73
2018-04-12T01:47:01.154Z,105.53
2018-04-12T01:49:34.291Z,94.87
2018-04-12T01:52:03.033Z,79.37
2018-04-12T01:54:36.372Z,88.23
2018-04-12T01:57:06.010Z,96.53
2018-04-12T01:59:39.545Z,94.77
2018-04-12T02:02:08.057Z,81.70
2018-04-12T02:04:41.244Z,79.70
2018-04-12T02:07:11.110Z,84.70
2018-04-12T02:09:44.200Z,82.17
2018-04-12T02:12:12.793Z,83.57
2018-04-12T02:14:46.005Z,78.10
2018-04-12T02:17:16.044Z,86.67
2018-04-12T02:19:49.030Z,79.93
2018-04-12T02:22:17.872Z,77.03
2018-04-12T02:24:51.201Z,73.97
2018-04-12T02:27:20.769Z,66.93
2018-04-12T02:30:02.025Z,71.20
2018-04-12T02:32:31.164Z,72.33
2018-04-12T02:34:59.692Z,68.77
2018-04-12T02:37:28.205Z,71.90
2018-04-12T02:39:58.158Z,61.87
2018-04-12T02:42:27.888Z,51.80
2018-04-12T02:45:01.217Z,37.10
2018-04-12T02:47:30.093Z,37.40
2018-04-12T02:50:12.452Z,35.03
2018-04-12T02:52:42.416Z,32.90
2018-04-12T02:55:10.917Z,33.80
2018-04-12T02:57:40.907Z,34.77
2018-04-12T03:00:10.728Z,33.80
2018-04-12T03:02:39.214Z,32.27
2018-04-12T03:05:11.329Z,35.47
2018-04-12T03:07:41.236Z,41.70
2018-04-12T03:10:15.660Z,42.50
2018-04-12T03:12:45.214Z,40.53
2018-04-12T03:15:15.637Z,41.23
2018-04-12T03:17:44.166Z,44.03
2018-04-12T03:20:17.637Z,42.90
2018-04-12T03:22:46.130Z,42.97
2018-04-12T03:25:28.848Z,47.20
2018-04-12T03:27:57.389Z,53.63
2018-04-12T03:30:25.943Z,39.83
2018-04-12T03:32:56.219Z,46.60
2018-04-12T03:35:24.733Z,48.07
2018-04-12T03:37:54.001Z,45.63
2018-04-12T03:40:25.991Z,49.80
2018-04-12T03:42:54.474Z,46.77
2018-04-12T03:45:28.329Z,53.73
2018-04-12T03:47:57.133Z,46.20
2018-04-12T03:50:29.995Z,54.13
2018-04-12T03:52:59.357Z,46.93
2018-04-12T03:55:33.205Z,42.93
2018-04-12T03:58:01.688Z,43.67
2018-04-12T04:00:35.218Z,45.20
2018-04-12T04:03:03.713Z,49.23
2018-04-12T04:05:38.421Z,58.53
2018-04-12T04:08:07.185Z,48.77
2018-04-12T04:10:48.663Z,47.77
2018-04-12T04:13:19.009Z,45.90
2018-04-12T04:18:01.406Z,44.90
2018-04-12T04:21:06.787Z,41.93
2018-04-12T04:23:36.316Z,40.23
2018-04-12T04:26:06.448Z,43.87
2018-04-12T04:28:36.065Z,43.40
2018-04-12T04:31:04.591Z,46.27
2018-04-12T04:33:33.477Z,47.43
2018-04-12T04:36:01.962Z,45.17
2018-04-12T04:38:31.280Z,40.80
2018-04-12T04:41:00.062Z,38.23
2018-04-12T04:43:28.955Z,43.67
2018-04-12T04:45:57.834Z,45.03
2018-04-12T04:48:26.601Z,38.80
2018-04-12T04:51:09.505Z,44.27
2018-04-12T04:53:38.359Z,46.47
2018-04-12T04:56:07.923Z,45.20
2018-04-12T04:58:36.844Z,49.83
2018-04-12T05:01:06.470Z,45.07
2018-04-12T05:03:37.954Z,44.43
2018-04-12T05:06:09.209Z,41.33
2018-04-12T05:08:38.489Z,39.57
2018-04-12T05:11:11.714Z,38.57
2018-04-12T05:13:41.004Z,44.90
2018-04-12T05:16:13.545Z,40.53
2018-04-12T05:18:43.122Z,42.67
2018-04-12T05:21:15.709Z,43.70
2018-04-12T05:23:46.136Z,38.13
2018-04-12T05:26:17.909Z,36.80
2018-04-12T05:28:47.800Z,37.57
2018-04-12T05:31:20.204Z,45.33
2018-04-12T05:33:49.789Z,48.80
2018-04-12T05:36:23.166Z,42.37
2018-04-12T05:38:52.493Z,37.60
2018-04-12T05:41:23.590Z,40.90
2018-04-12T05:43:52.089Z,42.47
2018-04-12T05:46:26.104Z,44.43
2018-04-12T05:48:56.116Z,36.83
2018-04-12T05:51:27.951Z,43.07
2018-04-12T05:53:56.460Z,43.37
2018-04-12T05:56:30.390Z,39.47
2018-04-12T05:58:59.956Z,40.07
2018-04-12T06:01:32.170Z,40.73
2018-04-12T06:04:01.509Z,44.17
2018-04-12T06:06:34.929Z,47.67
2018-04-12T06:22:16.187Z,46.90
2018-04-12T06:24:46.612Z,50.47
2018-04-12T06:27:17.054Z,49.63
2018-04-12T06:29:47.612Z,45.30
2018-04-12T06:32:16.932Z,48.77
2018-04-12T06:34:49.318Z,42.60
2018-04-12T06:37:17.869Z,45.67
2018-04-12T06:39:51.428Z,50.23
2018-04-12T06:42:21.329Z,45.43
2018-04-12T06:44:55.061Z,56.90
2018-04-12T06:47:23.613Z,59.57
2018-04-12T06:49:57.161Z,65.50
2018-04-12T06:52:26.065Z,67.57
2018-04-12T06:55:00.059Z,73.93
2018-04-12T06:57:29.946Z,65.17
2018-04-12T07:00:01.462Z,77.40
2018-04-12T07:02:31.869Z,81.43
2018-04-12T07:05:03.910Z,74.90
2018-04-12T07:07:33.191Z,111.00
2018-04-12T07:10:06.860Z,87.73
2018-04-12T07:12:37.118Z,82.00
2018-04-12T07:15:18.885Z,115.90
2018-04-12T07:17:48.354Z,113.13
2018-04-12T07:20:19.306Z,107.10
2018-04-12T07:22:48.809Z,115.83
2018-04-12T07:25:17.656Z,124.57
2018-04-12T07:27:47.941Z,115.30
2018-04-12T07:30:17.995Z,101.90
2018-04-12T07:32:48.745Z,107.70
2018-04-12T07:35:18.112Z,116.87
2018-04-12T07:37:46.983Z,107.07
2018-04-12T07:40:20.757Z,111.93
2018-04-12T07:42:51.252Z,128.60
2018-04-12T07:45:23.224Z,105.77
2018-04-12T07:47:53.188Z,116.03
2018-04-12T07:50:24.925Z,114.40
2018-04-12T07:52:53.458Z,108.50
2018-04-12T07:55:34.891Z,113.67
2018-04-12T07:58:04.203Z,116.43
2018-04-12T08:00:34.172Z,101.27
2018-04-12T08:03:03.248Z,118.97
2018-04-12T08:05:31.783Z,117.30
2018-04-12T08:08:01.796Z,112.70
2018-04-12T08:10:32.338Z,111.40
2018-04-12T08:13:01.235Z,120.33
2018-04-12T08:15:35.645Z,113.17
2018-04-12T08:18:04.153Z,121.37
2018-04-12T08:20:37.624Z,115.20
2018-04-12T08:23:06.548Z,119.93
2018-04-12T08:25:42.008Z,110.87
2018-04-12T08:28:11.259Z,111.37
2018-04-12T08:30:42.537Z,108.73
2018-04-12T08:33:11.426Z,103.50
2018-04-12T08:35:52.587Z,102.17
2018-04-12T08:38:22.733Z,95.87
2018-04-12T08:40:51.201Z,97.37
2018-04-12T08:43:19.723Z,98.73
2018-04-12T08:45:50.836Z,96.77
2018-04-12T08:48:20.363Z,96.60
2018-04-12T08:50:53.611Z,87.83
2018-04-12T08:53:23.247Z,99.33
2018-04-12T08:55:53.736Z,87.63
2018-04-12T08:58:22.226Z,82.33
2018-04-12T09:00:56.431Z,89.20
2018-04-12T09:03:24.948Z,78.63
2018-04-12T09:05:58.075Z,82.70
2018-04-12T09:08:27.595Z,80.57
2018-04-12T09:11:00.957Z,78.73
2018-04-12T09:13:30.467Z,82.40
2018-04-12T09:16:03.647Z,73.57
2018-04-12T09:18:32.857Z,74.63
2018-04-12T09:21:03.633Z,73.33
2018-04-12T09:23:32.104Z,73.13
2018-04-12T09:26:01.719Z,73.40
2018-04-12T09:28:31.211Z,72.70
2018-04-12T09:31:00.134Z,73.93
2018-04-12T09:33:29.026Z,83.47
2018-04-12T09:35:59.048Z,72.00
2018-04-12T09:38:27.631Z,74.07
2018-04-12T09:40:56.492Z,72.50
2018-04-12T09:43:26.163Z,70.13
2018-04-12T09:45:55.066Z,74.73
2018-04-12T09:48:24.607Z,66.33
2018-04-12T09:50:53.087Z,72.87
2018-04-12T09:53:22.339Z,68.47
2018-04-12T09:55:51.556Z,64.67
2018-04-12T09:58:24.152Z,66.87
2018-04-12T10:00:56.053Z,69.37
2018-04-12T10:03:27.351Z,69.93
2018-04-12T10:06:00.954Z,68.50
2018-04-12T10:08:30.383Z,67.97
2018-04-12T10:10:59.674Z,75.17
2018-04-12T10:13:31.768Z,70.60
2018-04-12T10:16:01.402Z,72.03
2018-04-12T10:18:33.943Z,77.77
2018-04-12T10:21:02.409Z,69.20
2018-04-12T10:23:43.860Z,72.37
2018-04-12T10:26:14.021Z,73.17
2018-04-12T10:28:42.609Z,70.77
2018-04-12T10:31:11.104Z,72.90
2018-04-12T10:33:41.002Z,70.57
2018-04-12T10:36:09.497Z,62.90
2018-04-12T10:38:42.425Z,71.07
2018-04-12T10:41:11.729Z,68.23
2018-04-12T10:43:45.347Z,67.43
2018-04-12T10:46:13.906Z,63.27
2018-04-12T10:48:47.296Z,69.77
2018-04-12T10:51:16.200Z,61.50
2018-04-12T10:53:51.421Z,62.97
2018-04-12T10:56:21.331Z,73.43
2018-04-12T10:58:53.359Z,66.77
2018-04-12T11:01:21.928Z,61.70
2018-04-12T11:04:03.795Z,65.20
2018-04-12T11:06:33.053Z,68.40
2018-04-12T11:09:02.792Z,70.07
2018-04-12T11:11:32.200Z,70.77
2018-04-12T11:14:01.136Z,64.70
2018-04-12T11:16:30.011Z,69.80
2018-04-12T11:19:11.480Z,67.90
2018-04-12T11:21:40.050Z,66.40
2018-04-12T11:24:08.664Z,63.90
2018-04-12T11:26:37.208Z,68.20
2018-04-12T11:29:09.487Z,66.97
2018-04-12T11:31:38.432Z,63.13
2018-04-12T11:34:11.041Z,68.50
2018-04-12T11:36:41.956Z,65.53
2018-04-12T11:39:14.430Z,66.10
2018-04-12T11:41:44.143Z,70.23
2018-04-12T11:44:17.554Z,71.27
2018-04-12T11:46:47.916Z,69.80
2018-04-12T11:49:18.259Z,69.47
2018-04-12T11:51:47.464Z,66.83
2018-04-12T11:54:23.562Z,350.97
2018-04-12T11:56:53.708Z,67.77
2018-04-12T11:59:22.998Z,73.20
2018-04-12T12:01:52.237Z,67.57
2018-04-12T12:04:24.826Z,63.77
2018-04-12T12:06:53.789Z,80.37
2018-04-12T12:09:27.145Z,69.27
2018-04-12T12:11:56.566Z,66.13
2018-04-12T12:14:38.078Z,65.70
2018-04-12T12:17:06.856Z,66.07
2018-04-12T12:19:36.115Z,68.17
2018-04-12T12:22:04.648Z,67.57
2018-04-12T12:24:34.425Z,64.07
2018-04-12T12:27:03.301Z,63.63
2018-04-12T12:29:36.105Z,66.63
2018-04-12T12:32:05.318Z,69.17
2018-04-12T12:34:38.043Z,63.70
2018-04-12T12:37:07.336Z,64.10
2018-04-12T12:39:40.759Z,67.77
2018-04-12T12:42:09.658Z,63.70
2018-04-12T12:44:43.607Z,64.37
2018-04-12T12:47:12.800Z,60.53
2018-04-12T12:49:45.485Z,62.50
2018-04-12T12:52:15.379Z,64.87
2018-04-12T12:54:49.372Z,68.53
2018-04-12T12:57:18.638Z,60.83
2018-04-12T12:59:59.860Z,59.27
2018-04-12T13:02:28.867Z,58.33
2018-04-12T13:04:58.587Z,56.87
2018-04-12T13:07:27.147Z,58.33
2018-04-12T13:09:57.218Z,60.03
2018-04-12T13:12:26.131Z,57.37
2018-04-12T13:14:58.482Z,57.37
2018-04-12T13:17:26.968Z,55.53
2018-04-12T13:20:00.795Z,57.07
2018-04-12T13:22:30.029Z,57.63
2018-04-12T13:25:03.961Z,59.10
2018-04-12T13:27:32.988Z,57.50
2018-04-12T13:30:15.192Z,59.17
2018-04-12T13:32:44.893Z,51.03
2018-04-12T13:35:14.194Z,52.37
2018-04-12T13:37:43.856Z,54.40
2018-04-12T13:40:13.800Z,53.10
2018-04-12T13:42:42.414Z,52.00
2018-04-12T13:45:14.365Z,53.80
2018-04-12T13:47:44.338Z,49.23
2018-04-12T13:50:26.258Z,52.90
2018-04-12T13:52:56.241Z,49.00
2018-04-12T13:55:24.753Z,51.93
2018-04-12T13:57:53.293Z,54.50
2018-04-12T14:00:25.004Z,54.53
2018-04-12T14:02:54.328Z,52.83
2018-04-12T14:05:24.076Z,51.90
2018-04-12T14:07:52.656Z,53.27
2018-04-12T14:10:34.461Z,51.33
2018-04-12T14:13:04.809Z,48.97
2018-04-12T14:28:46.308Z,45.50
2018-04-12T14:31:16.303Z,44.60
2018-04-12T14:33:45.252Z,48.20
2018-04-12T14:36:13.817Z,49.03
2018-04-12T14:38:43.073Z,48.80
2018-04-12T14:41:12.547Z,51.37
2018-04-12T14:43:41.435Z,49.03
2018-04-12T14:46:10.208Z,51.43
2018-04-12T14:48:43.088Z,46.77
2018-04-12T14:51:11.632Z,49.37
2018-04-12T14:53:45.073Z,46.50
2018-04-12T14:56:15.102Z,46.43
2018-04-12T14:58:48.178Z,50.13
2018-04-12T15:01:20.988Z,42.37
2018-04-12T15:03:50.419Z,46.77
2018-04-12T15:06:20.024Z,47.77
2018-04-12T15:09:01.441Z,48.03
2018-04-12T15:11:30.335Z,42.47
2018-04-12T15:13:58.831Z,43.87
2018-04-12T15:16:27.305Z,45.73
2018-04-12T15:18:59.274Z,46.47
2018-04-12T15:21:27.791Z,42.70
2018-04-12T15:24:01.276Z,42.73
2018-04-12T15:26:31.321Z,43.03
2018-04-12T15:29:05.086Z,44.90
2018-04-12T15:31:34.812Z,42.50
2018-04-12T15:34:07.344Z,41.03
2018-04-12T15:36:36.634Z,44.73
2018-04-12T15:39:09.663Z,41.47
2018-04-12T15:41:38.536Z,45.33
2018-04-12T15:44:11.395Z,44.43
2018-04-12T15:46:39.951Z,41.20
2018-04-12T15:49:13.930Z,40.97
2018-04-12T15:51:42.421Z,45.57
2018-04-12T15:54:15.920Z,41.40
2018-04-12T15:56:44.784Z,41.27
2018-04-12T15:59:26.251Z,38.10
2018-04-12T16:01:55.084Z,33.97
2018-04-12T16:04:23.632Z,32.63
2018-04-12T16:06:53.293Z,32.53
2018-04-12T16:09:23.194Z,35.37
2018-04-12T16:11:51.732Z,33.27
2018-04-12T16:14:23.974Z,35.97
2018-04-12T16:16:52.913Z,34.67
2018-04-12T16:19:26.300Z,35.70
2018-04-12T16:21:54.843Z,33.20
2018-04-12T16:24:36.933Z,32.07
2018-04-12T16:29:39.926Z,29.83
2018-04-12T16:32:09.967Z,29.80
2018-04-12T16:34:38.447Z,22.00
2018-04-12T16:37:06.963Z,24.63
2018-04-12T16:39:37.094Z,21.20
2018-04-12T16:42:05.636Z,25.57
2018-04-12T16:44:38.049Z,22.03
2018-04-12T16:47:07.288Z,23.23
2018-04-12T16:49:38.505Z,24.80
2018-04-12T16:52:08.571Z,25.63
2018-04-12T16:54:41.693Z,27.43
2018-04-12T16:57:11.235Z,25.00
2018-04-12T16:59:44.427Z,25.27
2018-04-12T17:02:13.272Z,27.17
2018-04-12T17:04:46.120Z,25.20
2018-04-12T17:07:15.387Z,25.50
2018-04-12T17:09:51.954Z,28.33
2018-04-12T17:12:20.451Z,21.10
2018-04-12T17:14:51.522Z,21.33
2018-04-12T17:17:20.075Z,21.73
2018-04-12T17:19:53.620Z,22.00
2018-04-12T17:22:22.420Z,23.40
2018-04-12T17:24:58.321Z,20.73
2018-04-12T17:27:26.856Z,22.57
2018-04-12T17:29:58.270Z,20.13
2018-04-12T17:32:27.783Z,21.10
2018-04-12T17:35:00.803Z,23.40
2018-04-12T17:37:30.892Z,23.80
2018-04-12T17:40:09.093Z,26.27
2018-04-12T17:42:37.574Z,26.03
2018-04-12T17:45:07.815Z,26.13
2018-04-12T17:47:36.725Z,22.77
2018-04-12T17:50:18.205Z,21.67
2018-04-12T17:52:47.151Z,20.77
2018-04-12T17:55:15.704Z,20.83
2018-04-12T17:57:45.321Z,20.70
2018-04-12T18:00:14.554Z,20.03
2018-04-12T18:02:43.069Z,20.00
2018-04-12T18:05:24.495Z,20.73
2018-04-12T18:07:53.836Z,19.67
2018-04-12T18:10:22.376Z,19.13
2018-04-12T18:12:52.016Z,18.83
2018-04-12T18:15:20.776Z,26.23
2018-04-12T18:17:50.018Z,20.47
2018-04-12T18:20:31.163Z,21.10
2018-04-12T18:23:00.957Z,19.47
2018-04-12T18:25:30.491Z,24.07
2018-04-12T18:28:00.641Z,19.10
2018-04-12T18:30:29.417Z,22.43
2018-04-12T18:32:58.431Z,23.40
2018-04-12T18:35:28.515Z,22.30
2018-04-12T18:37:57.842Z,21.77
2018-04-12T18:40:30.251Z,19.37
2018-04-12T18:42:59.441Z,21.50
2018-04-12T18:45:41.024Z,22.27
2018-04-12T18:48:10.515Z,22.60
2018-04-12T18:50:39.773Z,20.93
2018-04-12T18:53:08.375Z,22.50
2018-04-12T18:55:38.150Z,22.97
2018-04-12T18:58:07.945Z,24.27
2018-04-12T19:00:40.596Z,24.53
2018-04-12T19:03:09.557Z,20.90
2018-04-12T19:05:42.118Z,22.37
2018-04-12T19:08:11.835Z,26.37
2018-04-12T19:10:44.684Z,21.13
2018-04-12T19:13:13.168Z,21.33
2018-04-12T19:15:55.214Z,23.20
2018-04-12T19:18:24.804Z,20.23
2018-04-12T19:20:53.351Z,22.63
2018-04-12T19:23:21.853Z,32.60
2018-04-12T19:25:52.460Z,26.33
2018-04-12T19:28:22.088Z,21.00
2018-04-12T19:30:55.460Z,23.60
2018-04-12T19:33:24.300Z,24.30
2018-04-12T19:36:05.456Z,29.00
2018-04-12T19:38:35.208Z,33.33
2018-04-12T19:41:04.462Z,26.30
2018-04-12T19:43:34.552Z,32.30
2018-04-12T19:46:03.412Z,30.33
2018-04-12T19:48:32.719Z,31.37
2018-04-12T19:51:04.741Z,24.43
2018-04-12T19:53:33.526Z,24.53
2018-04-12T19:56:09.662Z,23.73
2018-04-12T19:58:38.148Z,30.77
2018-04-12T20:01:11.386Z,37.60
2018-04-12T20:03:40.689Z,37.57
2018-04-12T20:06:13.541Z,25.80
2018-04-12T20:08:43.068Z,38.13
2018-04-12T20:11:15.039Z,25.53
2018-04-12T20:13:43.555Z,37.53
2018-04-12T20:16:17.080Z,41.87
2018-04-12T20:18:46.606Z,31.47
2018-04-12T20:21:19.095Z,32.17
2018-04-12T20:23:47.595Z,27.43
2018-04-12T20:26:29.261Z,29.53
2018-04-12T20:28:58.848Z,27.50
2018-04-12T20:31:27.340Z,25.80
2018-04-12T20:33:56.102Z,25.10
2018-04-12T20:36:25.984Z,27.63
2018-04-12T20:38:54.524Z,29.70
2018-04-12T20:41:27.713Z,28.30
2018-04-12T20:43:56.943Z,30.20
2018-04-12T20:46:29.671Z,27.83
2018-04-12T20:48:59.651Z,32.43
2018-04-12T20:51:40.877Z,33.67
2018-04-12T20:54:11.928Z,34.73
2018-04-12T20:56:41.908Z,31.70
2018-04-12T20:59:11.419Z,29.33
2018-04-12T21:01:40.961Z,29.93
2018-04-12T21:04:09.497Z,24.10
2018-04-12T21:06:39.121Z,27.37
2018-04-12T21:09:09.406Z,36.47
2018-04-12T21:11:42.343Z,36.20
2018-04-12T21:14:11.974Z,29.93
2018-04-12T21:16:43.108Z,37.80
2018-04-12T21:19:12.045Z,27.17
2018-04-12T21:21:45.048Z,31.47
2018-04-12T21:24:14.562Z,32.73
2018-04-12T21:26:47.983Z,29.33
2018-04-12T21:29:16.860Z,41.10
2018-04-12T21:31:50.616Z,31.63
2018-04-12T21:34:20.289Z,26.37
2018-04-12T21:36:52.962Z,28.67
2018-04-12T21:39:22.477Z,25.13
2018-04-12T21:41:55.519Z,31.77
2018-04-12T21:44:23.993Z,36.00
2018-04-12T21:47:01.095Z,31.03
2018-04-12T21:49:30.600Z,38.30
2018-04-12T21:52:00.462Z,129.53
2018-04-12T21:54:29.356Z,47.93
2018-04-12T21:57:03.682Z,30.93
2018-04-12T21:59:32.176Z,32.23
2018-04-12T22:02:05.495Z,37.90
2018-04-12T22:04:35.319Z,30.23
2018-04-12T22:07:17.475Z,30.17
2018-04-12T22:09:47.184Z,31.60
2018-04-12T22:12:17.658Z,31.03
2018-04-12T22:14:47.081Z,33.80
2018-04-12T22:17:17.063Z,35.70
2018-04-12T22:19:47.240Z,41.60
2018-04-12T22:22:15.928Z,67.33
2018-04-12T22:24:45.056Z,58.37
2018-04-12T22:27:17.663Z,75.07
2018-04-12T22:29:47.812Z,58.07
2018-04-12T22:32:20.795Z,55.10
2018-04-12T22:34:49.407Z,39.30
2018-04-12T22:37:22.600Z,33.73
2018-04-12T22:39:52.272Z,37.03
2018-04-12T22:42:24.812Z,37.43
2018-04-12T22:44:54.200Z,33.80
2018-04-12T22:47:35.530Z,30.43
2018-04-12T22:50:04.204Z,29.67
2018-04-12T22:52:33.101Z,32.47
2018-04-12T22:55:02.692Z,34.07
2018-04-12T22:57:31.298Z,37.73
2018-04-12T23:00:00.005Z,34.77
2018-04-12T23:02:33.368Z,38.00
2018-04-12T23:05:03.399Z,35.23
2018-04-12T23:07:35.647Z,32.47
2018-04-12T23:10:04.273Z,29.47
2018-04-12T23:12:37.152Z,31.53
2018-04-12T23:15:06.737Z,34.17
2018-04-12T23:17:39.480Z,39.83
2018-04-12T23:20:09.095Z,37.83
2018-04-12T23:22:42.316Z,40.27
2018-04-12T23:25:10.962Z,38.50
2018-04-12T23:27:44.409Z,40.27
2018-04-12T23:30:13.812Z,37.17
2018-04-12T23:32:46.608Z,48.93
2018-04-12T23:35:15.595Z,49.77
2018-04-12T23:37:48.018Z,51.40
2018-04-12T23:40:17.024Z,48.90
2018-04-12T23:42:49.732Z,46.27
2018-04-12T23:45:19.127Z,36.17
2018-04-12T23:50:23.963Z,45.03
2018-04-12T23:52:56.757Z,64.03
2018-04-12T23:55:25.412Z,70.30
2018-04-12T23:57:59.353Z,50.00
